Time;durP1;ratioP1;P1;durP2;ratioP2;P2;SDS_P1;SDS_P2;PMS_P1;PMS_P2;Temp;Humidity;BMP_temperature;BMP_pressure;BME280_temperature;BME280_humidity;BME280_pressure;Samples;Min_cycle;Max_cycle;Signal;HPM_P1;HPM_P2
2022/07/28 00:01:14;;;;;;;4.85;1.32;;;;;;;18.46;100.00;98372.78;1658777;84;28063;-86
2022/07/28 00:03:42;;;;;;;3.87;1.40;;;;;;;18.36;100.00;98368.94;1657033;84;28223;-86
2022/07/28 00:06:10;;;;;;;5.45;1.85;;;;;;;18.45;100.00;98369.80;1660484;83;28055;-86
2022/07/28 00:08:37;;;;;;;2.98;1.27;;;;;;;18.53;100.00;98368.03;1655564;84;28101;-89
2022/07/28 00:11:05;;;;;;;3.40;1.55;;;;;;;18.71;100.00;98370.11;1654688;85;28086;-86
2022/07/28 00:13:31;;;;;;;2.35;1.70;;;;;;;18.77;100.00;98366.82;1652394;86;28196;-86
2022/07/28 00:15:57;;;;;;;2.58;1.30;;;;;;;18.61;100.00;98370.73;1654967;86;28112;-89
2022/07/28 00:18:24;;;;;;;1.95;1.30;;;;;;;18.48;100.00;98366.35;1655025;85;28218;-89
2022/07/28 00:20:50;;;;;;;2.35;1.20;;;;;;;18.39;100.00;98369.93;1653494;86;28097;-89
2022/07/28 00:23:17;;;;;;;1.90;1.55;;;;;;;18.34;100.00;98367.76;1655430;85;28077;-85
2022/07/28 00:25:43;;;;;;;4.03;1.67;;;;;;;18.48;100.00;98372.14;1654940;86;28156;-85
2022/07/28 00:28:09;;;;;;;3.25;1.27;;;;;;;18.61;100.00;98379.17;1654864;86;28069;-85
2022/07/28 00:30:36;;;;;;;5.17;1.27;;;;;;;18.70;100.00;98376.42;1655118;86;28066;-86
2022/07/28 00:33:07;;;;;;;4.55;1.25;;;;;;;18.83;100.00;98373.80;1654742;85;28113;-86
2022/07/28 00:35:33;;;;;;;2.70;1.20;;;;;;;18.95;100.00;98375.17;1655177;86;28246;-89
2022/07/28 00:38:03;;;;;;;3.90;1.45;;;;;;;19.06;100.00;98378.36;1655126;86;28113;-89
2022/07/28 00:43:14;;;;;;;4.45;1.60;;;;;;;19.21;100.00;98382.53;1650466;85;28070;-86
2022/07/28 00:45:42;;;;;;;3.50;1.60;;;;;;;19.23;100.00;98379.23;1654974;85;28417;-85
2022/07/28 00:48:09;;;;;;;3.70;1.50;;;;;;;19.22;100.00;98373.09;1654984;85;28065;-86
2022/07/28 00:50:43;;;;;;;3.67;1.70;;;;;;;19.20;100.00;98378.23;1654490;86;28073;-86
2022/07/28 00:53:12;;;;;;;2.98;1.42;;;;;;;19.16;100.00;98372.41;1654196;86;28204;-89
2022/07/28 00:55:40;;;;;;;4.40;1.75;;;;;;;19.14;100.00;98375.74;1654744;86;28019;-89
2022/07/28 00:58:07;;;;;;;3.87;1.47;;;;;;;19.13;100.00;98383.85;1656259;85;28086;-86
2022/07/28 01:00:43;;;;;;;2.77;1.30;;;;;;;19.13;100.00;98382.53;1655135;85;28133;-86
2022/07/28 01:03:11;;;;;;;4.10;1.30;;;;;;;19.13;100.00;98386.50;1654737;85;27999;-86
2022/07/28 01:05:59;;;;;;;3.05;1.90;;;;;;;19.11;100.00;98387.16;1653067;85;28014;-86
2022/07/28 01:08:46;;;;;;;3.75;1.60;;;;;;;19.08;100.00;98387.00;1654194;85;28156;-89
2022/07/28 01:11:22;;;;;;;3.55;1.60;;;;;;;19.05;100.00;98382.48;1653817;85;28113;-89
2022/07/28 01:14:06;;;;;;;10.03;2.10;;;;;;;19.03;100.00;98380.52;1657315;85;28024;-89
2022/07/28 01:16:29;;;;;;;5.10;2.08;;;;;;;19.00;100.00;98376.84;1652904;85;28054;-86
2022/07/28 01:19:07;;;;;;;5.05;1.50;;;;;;;18.97;100.00;98375.85;1654854;85;28111;-86
2022/07/28 01:21:45;;;;;;;6.22;1.87;;;;;;;18.95;100.00;98377.82;1654307;85;28070;-86
2022/07/28 01:24:49;;;;;;;4.53;1.40;;;;;;;18.93;100.00;98378.50;1654427;86;28011;-86
2022/07/28 01:27:25;;;;;;;3.80;1.72;;;;;;;18.90;100.00;98387.59;1654415;85;28196;-86
2022/07/28 01:30:09;;;;;;;3.77;1.50;;;;;;;18.85;100.00;98388.57;1653078;85;28487;-89
2022/07/28 01:32:52;;;;;;;3.12;1.50;;;;;;;18.77;100.00;98397.31;1653510;85;28108;-85
2022/07/28 01:35:21;;;;;;;2.45;1.32;;;;;;;18.77;100.00;98395.98;1652710;86;28101;-86
2022/07/28 01:37:53;;;;;;;3.42;1.50;;;;;;;18.74;100.00;98396.31;1655131;85;28093;-85
2022/07/28 01:40:23;;;;;;;5.12;1.65;;;;;;;18.76;100.00;98388.22;1654103;85;28188;-89
2022/07/28 01:42:56;;;;;;;3.42;1.30;;;;;;;18.80;100.00;98392.20;1654798;85;28072;-89
2022/07/28 01:45:24;;;;;;;2.60;1.50;;;;;;;18.85;100.00;98391.72;1654548;85;28142;-89
2022/07/28 01:47:53;;;;;;;4.00;1.30;;;;;;;18.85;100.00;98393.87;1652967;85;28100;-89
2022/07/28 01:50:21;;;;;;;3.08;1.50;;;;;;;18.79;100.00;98395.84;1654815;86;28112;-89
2022/07/28 01:52:50;;;;;;;3.60;1.77;;;;;;;18.78;100.00;98390.19;1654974;85;28086;-87
2022/07/28 01:55:19;;;;;;;3.35;1.40;;;;;;;18.73;100.00;98387.19;1654729;85;28078;-86
2022/07/28 01:57:54;;;;;;;4.15;1.85;;;;;;;18.70;100.00;98395.48;1654503;85;28172;-85
2022/07/28 02:00:23;;;;;;;4.30;1.55;;;;;;;18.68;100.00;98390.33;1654297;85;28112;-85
2022/07/28 02:02:51;;;;;;;7.25;1.80;;;;;;;18.65;100.00;98391.15;1653526;86;28094;-87
2022/07/28 02:05:21;;;;;;;3.92;1.70;;;;;;;18.61;100.00;98385.80;1654668;85;28111;-85
2022/07/28 02:07:48;;;;;;;2.77;1.40;;;;;;;18.66;100.00;98389.64;1654727;85;28263;-86
2022/07/28 02:10:16;;;;;;;2.77;1.37;;;;;;;18.68;100.00;98392.14;1654722;86;28112;-87
2022/07/28 02:12:48;;;;;;;3.40;1.40;;;;;;;18.71;100.00;98388.66;1654990;85;28176;-86
2022/07/28 02:15:26;;;;;;;4.25;1.92;;;;;;;18.75;100.00;98384.73;1654449;85;28104;-89
2022/07/28 02:17:53;;;;;;;5.67;1.72;;;;;;;18.75;100.00;98391.85;1653012;85;28073;-85
2022/07/28 02:20:21;;;;;;;3.55;1.82;;;;;;;18.61;100.00;98394.59;1654326;85;28117;-89
2022/07/28 02:22:51;;;;;;;6.60;1.40;;;;;;;18.56;100.00;98389.43;1652658;85;28140;-89
2022/07/28 02:25:19;;;;;;;3.20;1.60;;;;;;;18.62;100.00;98390.95;1654862;85;28078;-89
2022/07/28 02:28:02;;;;;;;3.35;1.62;;;;;;;18.69;100.00;98392.48;1655003;85;28156;-85
2022/07/28 02:30:35;;;;;;;3.50;1.35;;;;;;;18.72;100.00;98391.66;1653060;85;28077;-86
2022/07/28 02:33:10;;;;;;;3.85;1.50;;;;;;;18.79;100.00;98399.81;1654739;85;27999;-89
2022/07/28 02:35:43;;;;;;;3.25;1.40;;;;;;;18.82;100.00;98400.00;1654687;85;28765;-85
2022/07/28 02:38:15;;;;;;;2.77;1.50;;;;;;;18.80;100.00;98404.97;1655008;85;28256;-85
2022/07/28 02:40:44;;;;;;;7.55;1.92;;;;;;;18.77;100.00;98408.41;1654594;85;28179;-87
2022/07/28 02:43:16;;;;;;;4.20;1.45;;;;;;;18.74;100.00;98409.58;1654811;85;28101;-85
2022/07/28 02:45:45;;;;;;;2.70;1.98;;;;;;;18.66;100.00;98405.55;1654791;85;28114;-85
2022/07/28 02:48:15;;;;;;;4.60;1.50;;;;;;;18.64;100.00;98414.17;1654005;86;28093;-86
2022/07/28 02:50:53;;;;;;;4.42;1.30;;;;;;;18.56;100.00;98408.81;1652279;85;28101;-90
2022/07/28 02:53:22;;;;;;;2.62;1.42;;;;;;;18.42;100.00;98409.88;1654602;85;28046;-89
2022/07/28 02:55:54;;;;;;;2.70;1.52;;;;;;;18.32;100.00;98408.66;1655049;85;28097;-87
2022/07/28 02:58:30;;;;;;;3.55;1.40;;;;;;;18.22;100.00;98409.27;1652860;85;28099;-85
2022/07/28 03:00:59;;;;;;;2.87;1.20;;;;;;;18.07;100.00;98412.95;1654583;85;28077;-89
2022/07/28 03:03:27;;;;;;;3.55;1.90;;;;;;;18.05;100.00;98422.05;1654228;85;28168;-89
2022/07/28 03:06:00;;;;;;;3.37;1.50;;;;;;;18.02;100.00;98413.91;1655317;85;28490;-86
2022/07/28 03:08:26;;;;;;;2.65;1.20;;;;;;;17.92;100.00;98414.01;1658043;84;28139;-86
2022/07/28 03:11:07;;;;;;;3.17;1.30;;;;;;;17.84;100.00;98409.95;1676338;83;28147;-89
2022/07/28 03:13:42;;;;;;;4.78;1.55;;;;;;;17.68;100.00;98401.05;1675520;85;28091;-89
2022/07/28 03:16:14;;;;;;;5.47;1.40;;;;;;;17.64;100.00;98406.31;1676202;85;28091;-85
2022/07/28 03:18:40;;;;;;;1.92;1.10;;;;;;;17.78;100.00;98417.70;1675895;84;28141;-85
2022/07/28 03:21:07;;;;;;;3.95;1.12;;;;;;;17.94;100.00;98409.40;1680483;83;28099;-85
2022/07/28 03:23:47;;;;;;;2.77;1.20;;;;;;;18.10;100.00;98414.47;1657747;84;28155;-86
2022/07/28 03:26:26;;;;;;;4.00;1.25;;;;;;;18.22;100.00;98411.91;1650587;84;28146;-86
2022/07/28 03:29:00;;;;;;;4.40;1.20;;;;;;;18.29;100.00;98417.73;1677763;82;28137;-86
2022/07/28 03:31:28;;;;;;;2.37;1.17;;;;;;;18.35;100.00;98420.26;1673744;83;28086;-89
2022/07/28 03:33:54;;;;;;;3.60;1.02;;;;;;;18.34;100.00;98419.91;1675939;83;28176;-85
2022/07/28 03:36:24;;;;;;;4.62;1.50;;;;;;;18.33;100.00;98422.22;1681922;83;28110;-85
2022/07/28 03:38:54;;;;;;;4.22;1.90;;;;;;;18.32;100.00;98423.23;1679674;84;28161;-86
2022/07/28 03:41:25;;;;;;;2.25;1.30;;;;;;;18.28;100.00;98427.16;1681517;83;28012;-86
2022/07/28 03:43:53;;;;;;;1.47;0.98;;;;;;;18.21;100.00;98432.77;1677749;85;28100;-86
2022/07/28 03:46:20;;;;;;;3.15;1.22;;;;;;;18.14;100.00;98433.87;1675437;83;28126;-89
2022/07/28 03:48:46;;;;;;;2.35;1.10;;;;;;;18.09;100.00;98438.80;1674125;83;28484;-89
2022/07/28 03:51:15;;;;;;;3.52;1.20;;;;;;;18.06;100.00;98438.25;1678209;83;28137;-86
2022/07/28 03:53:42;;;;;;;2.87;1.45;;;;;;;18.03;100.00;98443.88;1678918;83;28016;-86
2022/07/28 03:56:11;;;;;;;2.87;1.32;;;;;;;18.00;100.00;98445.52;1675037;85;28070;-86
2022/07/28 03:58:41;;;;;;;2.20;1.40;;;;;;;17.99;100.00;98446.01;1677581;83;28012;-85
2022/07/28 04:01:07;;;;;;;2.62;1.20;;;;;;;17.98;100.00;98443.85;1675615;83;28130;-86
2022/07/28 04:03:36;;;;;;;2.98;1.57;;;;;;;17.98;100.00;98445.17;1678862;83;28150;-86
2022/07/28 04:06:05;;;;;;;3.55;1.60;;;;;;;17.98;100.00;98449.15;1680610;83;28107;-85
2022/07/28 04:08:31;;;;;;;6.42;2.42;;;;;;;17.97;100.00;98448.80;1652821;84;28244;-85
2022/07/28 04:10:58;;;;;;;2.33;1.40;;;;;;;17.98;100.00;98447.82;1640956;84;28104;-89
2022/07/28 04:13:24;;;;;;;4.22;1.35;;;;;;;18.01;100.00;98445.83;1629251;85;28177;-89
2022/07/28 04:15:51;;;;;;;2.70;1.72;;;;;;;18.03;100.00;98447.36;1643471;85;28083;-89
2022/07/28 04:18:19;;;;;;;4.03;1.47;;;;;;;18.04;100.00;98445.55;1634829;85;28089;-84
2022/07/28 04:20:48;;;;;;;3.00;1.70;;;;;;;18.02;100.00;98443.04;1675032;83;28094;-85
2022/07/28 04:23:14;;;;;;;2.92;1.42;;;;;;;18.00;100.00;98443.70;1632595;85;28201;-85
2022/07/28 04:25:49;;;;;;;2.20;1.30;;;;;;;18.03;100.00;98440.73;1629033;84;28090;-85
2022/07/28 04:28:18;;;;;;;2.95;1.35;;;;;;;18.10;100.00;98438.31;1637755;85;28112;-85
2022/07/28 04:30:50;;;;;;;4.72;1.32;;;;;;;18.16;100.00;98441.18;1640200;84;28758;-85
2022/07/28 04:33:18;;;;;;;3.75;1.50;;;;;;;18.23;100.00;98439.55;1629454;85;28208;-86
2022/07/28 04:35:51;;;;;;;3.62;1.50;;;;;;;18.31;100.00;98446.25;1639297;85;28137;-86
2022/07/28 04:38:20;;;;;;;4.08;1.52;;;;;;;18.37;100.00;98444.80;1634954;85;28098;-85
2022/07/28 04:40:48;;;;;;;2.67;1.50;;;;;;;18.42;100.00;98439.86;1632787;85;28097;-86
2022/07/28 04:43:15;;;;;;;3.25;1.40;;;;;;;18.43;100.00;98442.85;1636520;85;28100;-86
2022/07/28 04:45:45;;;;;;;4.65;1.50;;;;;;;18.46;100.00;98439.03;1635723;85;28082;-85
2022/07/28 04:48:12;;;;;;;3.72;1.40;;;;;;;18.38;100.00;98441.97;1630098;84;28212;-86
2022/07/28 04:50:41;;;;;;;3.08;1.45;;;;;;;18.44;100.00;98444.48;1629597;85;28011;-89
2022/07/28 04:53:07;;;;;;;2.62;1.30;;;;;;;18.52;100.00;98443.23;1638083;85;28085;-85
2022/07/28 04:55:33;;;;;;;6.28;1.95;;;;;;;18.53;100.00;98442.24;1632664;85;28140;-85
2022/07/28 04:58:00;;;;;;;3.33;1.47;;;;;;;18.34;100.00;98445.92;1639394;84;28041;-86
2022/07/28 05:00:29;;;;;;;1.57;1.22;;;;;;;18.33;100.00;98446.06;1638387;85;28078;-85
2022/07/28 05:02:57;;;;;;;4.20;1.50;;;;;;;18.42;100.00;98449.13;1643146;85;28050;-86
2022/07/28 05:05:29;;;;;;;5.35;1.90;;;;;;;18.47;100.00;98451.31;1636292;85;28148;-86
2022/07/28 05:07:55;;;;;;;3.75;1.55;;;;;;;18.50;100.00;98450.49;1666428;83;28102;-87
2022/07/28 05:10:21;;;;;;;6.35;1.52;;;;;;;18.56;100.00;98452.55;1667897;83;28076;-86
2022/07/28 05:12:49;;;;;;;3.00;1.50;;;;;;;18.64;100.00;98457.91;1641373;84;28151;-87
2022/07/28 05:15:15;;;;;;;3.75;1.30;;;;;;;18.63;100.00;98456.24;1641001;85;28076;-86
2022/07/28 05:17:43;;;;;;;3.77;1.87;;;;;;;18.55;100.00;98460.16;1642432;85;28178;-89
2022/07/28 05:20:19;;;;;;;5.83;2.20;;;;;;;18.51;100.00;98463.25;1664279;84;28080;-85
2022/07/28 05:22:49;;;;;;;3.30;1.70;;;;;;;18.48;100.00;98464.91;1667185;83;28099;-84
2022/07/28 05:25:25;;;;;;;4.97;1.82;;;;;;;18.36;100.00;98465.16;1667102;83;28082;-86
2022/07/28 05:27:52;;;;;;;3.15;1.95;;;;;;;18.22;100.00;98463.05;1663447;84;28121;-87
2022/07/28 05:30:22;;;;;;;4.47;1.82;;;;;;;18.19;100.00;98465.19;1640593;85;28166;-85
2022/07/28 05:32:52;;;;;;;3.72;2.47;;;;;;;18.15;100.00;98465.16;1645006;85;28127;-85
2022/07/28 05:35:18;;;;;;;4.72;1.85;;;;;;;18.12;100.00;98467.61;1645703;85;28024;-86
2022/07/28 05:37:50;;;;;;;8.85;2.15;;;;;;;18.21;100.00;98470.69;1666807;84;28107;-86
2022/07/28 05:40:22;;;;;;;5.95;2.47;;;;;;;18.41;100.00;98469.98;1664040;84;28182;-85
2022/07/28 05:42:53;;;;;;;4.62;2.02;;;;;;;18.46;100.00;98476.14;1620548;85;48970;-86
2022/07/28 05:45:19;;;;;;;4.62;2.37;;;;;;;18.54;100.00;98468.26;1637589;85;28168;-86
2022/07/28 05:47:51;;;;;;;5.37;1.87;;;;;;;18.54;100.00;98471.77;1642499;85;28124;-84
2022/07/28 05:50:19;;;;;;;3.22;1.75;;;;;;;18.46;100.00;98474.33;1647347;85;28111;-89
2022/07/28 05:52:52;;;;;;;3.60;2.02;;;;;;;18.40;100.00;98478.42;1639895;85;28077;-86
2022/07/28 05:55:21;;;;;;;4.75;2.10;;;;;;;18.46;100.00;98478.79;1666482;84;28008;-89
2022/07/28 05:57:49;;;;;;;4.95;2.30;;;;;;;18.60;100.00;98482.25;1666202;84;28196;-89
2022/07/28 06:00:18;;;;;;;4.15;2.15;;;;;;;18.76;100.00;98476.52;1666112;83;28169;-89
2022/07/28 06:02:47;;;;;;;5.12;2.33;;;;;;;18.76;100.00;98482.34;1666225;84;28094;-86
2022/07/28 06:05:16;;;;;;;5.30;2.00;;;;;;;18.72;100.00;98484.45;1670272;83;28116;-86
2022/07/28 06:07:43;;;;;;;6.95;2.40;;;;;;;18.69;100.00;98479.48;1665616;84;28186;-86
2022/07/28 06:10:18;;;;;;;3.60;2.00;;;;;;;18.74;100.00;98473.70;1664052;83;28093;-89
2022/07/28 06:12:49;;;;;;;4.22;2.05;;;;;;;18.72;100.00;98479.16;1658765;84;28208;-90
2022/07/28 06:15:24;;;;;;;3.10;2.08;;;;;;;18.63;100.00;98483.24;1660598;84;42382;-86
2022/07/28 06:17:54;;;;;;;5.20;1.55;;;;;;;18.53;100.00;98478.02;1659177;84;28009;-86
2022/07/28 06:20:22;;;;;;;4.87;1.70;;;;;;;18.52;100.00;98483.47;1654626;84;28008;-85
2022/07/28 06:22:51;;;;;;;4.03;1.92;;;;;;;18.52;100.00;98481.66;1656787;84;28165;-86
2022/07/28 06:25:22;;;;;;;4.20;2.15;;;;;;;18.55;100.00;98485.34;1656290;84;28080;-86
2022/07/28 06:27:50;;;;;;;5.80;2.37;;;;;;;18.57;100.00;98483.38;1656047;84;28146;-86
2022/07/28 06:30:18;;;;;;;4.05;2.02;;;;;;;18.60;100.00;98491.00;1656353;84;28159;-86
2022/07/28 06:32:46;;;;;;;3.47;2.40;;;;;;;18.67;100.00;98492.54;1656632;84;28125;-86
2022/07/28 06:35:15;;;;;;;3.98;2.35;;;;;;;18.70;100.00;98494.41;1656626;84;28136;-89
2022/07/28 06:37:42;;;;;;;6.60;2.15;;;;;;;18.73;100.00;98492.75;1657364;84;28040;-86
2022/07/28 06:40:10;;;;;;;5.40;2.10;;;;;;;18.74;100.00;98492.26;1657008;84;28054;-86
2022/07/28 06:42:37;;;;;;;5.62;2.42;;;;;;;18.70;100.00;98487.77;1656770;84;28075;-86
2022/07/28 06:45:05;;;;;;;5.22;2.62;;;;;;;18.70;100.00;98492.24;1654918;84;28083;-86
2022/07/28 06:47:31;;;;;;;6.15;2.35;;;;;;;18.66;100.00;98490.38;1656904;84;28007;-86
2022/07/28 06:49:58;;;;;;;6.28;2.10;;;;;;;18.80;100.00;98487.66;1650881;86;28102;-86
2022/07/28 06:52:35;;;;;;;4.37;2.02;;;;;;;18.86;100.00;98486.20;1652027;86;28173;-89
2022/07/28 06:55:04;;;;;;;5.60;2.30;;;;;;;18.84;100.00;98480.20;1650609;84;28178;-86
2022/07/28 06:57:32;;;;;;;4.30;2.00;;;;;;;18.88;100.00;98479.73;1649883;84;28045;-86
2022/07/28 07:00:02;;;;;;;6.25;2.10;;;;;;;18.97;100.00;98476.15;1652917;84;28071;-86
2022/07/28 07:02:41;;;;;;;3.65;1.95;;;;;;;18.95;100.00;98475.46;1650653;84;28066;-86
2022/07/28 07:05:10;;;;;;;5.08;2.10;;;;;;;18.91;100.00;98474.62;1653161;84;28068;-86
2022/07/28 07:07:43;;;;;;;4.75;2.10;;;;;;;18.88;100.00;98473.09;1649228;84;28084;-86
2022/07/28 07:10:10;;;;;;;2.80;1.77;;;;;;;18.97;100.00;98476.64;1651100;84;28099;-86
2022/07/28 07:12:38;;;;;;;3.67;2.02;;;;;;;19.00;100.00;98473.66;1652371;84;28099;-89
2022/07/28 07:15:05;;;;;;;6.75;2.72;;;;;;;19.02;100.00;98479.16;1656453;84;28114;-86
2022/07/28 07:17:31;;;;;;;3.75;1.98;;;;;;;19.04;100.00;98471.02;1650491;84;28060;-90
2022/07/28 07:19:58;;;;;;;3.17;1.60;;;;;;;19.06;100.00;98464.57;1653212;84;28121;-89
2022/07/28 07:22:24;;;;;;;3.20;1.90;;;;;;;19.13;100.00;98468.25;1648721;84;28078;-85
2022/07/28 07:24:52;;;;;;;5.37;2.10;;;;;;;19.18;100.00;98468.61;1648635;86;28098;-85
2022/07/28 07:27:18;;;;;;;5.60;1.95;;;;;;;19.22;100.00;98473.08;1650249;86;28106;-89
2022/07/28 07:29:45;;;;;;;4.05;1.80;;;;;;;19.32;100.00;98472.45;1651993;84;28153;-89
2022/07/28 07:32:11;;;;;;;4.62;1.72;;;;;;;19.39;100.00;98465.52;1656985;84;28114;-86
2022/07/28 07:34:39;;;;;;;4.03;2.00;;;;;;;19.39;100.00;98462.86;1651423;84;28125;-85
2022/07/28 07:37:06;;;;;;;4.08;2.00;;;;;;;19.43;100.00;98464.68;1649022;86;28088;-85
2022/07/28 07:39:33;;;;;;;3.65;2.08;;;;;;;19.43;100.00;98468.17;1628238;85;28020;-86
2022/07/28 07:42:04;;;;;;;6.22;1.82;;;;;;;19.43;100.00;98466.01;1621526;86;28094;-86
2022/07/28 07:44:38;;;;;;;3.25;1.40;;;;;;;19.46;100.00;98467.89;1656529;84;28154;-86
2022/07/28 07:47:09;;;;;;;3.72;1.90;;;;;;;19.50;100.00;98465.24;1653161;84;28087;-86
2022/07/28 07:49:42;;;;;;;5.08;1.95;;;;;;;19.57;100.00;98470.73;1648968;84;28103;-85
2022/07/28 07:52:08;;;;;;;2.80;1.20;;;;;;;19.63;100.00;98470.92;1652328;84;28229;-85
2022/07/28 07:54:34;;;;;;;4.25;1.50;;;;;;;19.71;100.00;98471.41;1648914;84;28106;-85
2022/07/28 07:57:07;;;;;;;3.80;1.62;;;;;;;19.76;100.00;98464.28;1650482;84;28107;-85
2022/07/28 07:59:42;;;;;;;3.17;1.67;;;;;;;19.81;100.00;98466.77;1646073;86;28096;-86
2022/07/28 08:02:08;;;;;;;4.40;1.35;;;;;;;19.91;100.00;98473.28;1643441;84;28031;-89
2022/07/28 08:04:34;;;;;;;3.55;1.75;;;;;;;19.97;100.00;98472.59;1654445;84;28148;-85
2022/07/28 08:07:08;;;;;;;3.98;1.70;;;;;;;20.02;100.00;98476.42;1648322;86;28081;-85
2022/07/28 08:09:33;;;;;;;3.35;1.40;;;;;;;20.09;100.00;98474.43;1624062;85;28132;-86
2022/07/28 08:12:01;;;;;;;3.52;1.20;;;;;;;20.16;100.00;98472.28;1665629;83;28174;-89
2022/07/28 08:14:33;;;;;;;3.22;1.22;;;;;;;20.26;100.00;98478.25;1657376;84;28109;-90
2022/07/28 08:17:02;;;;;;;5.00;1.50;;;;;;;20.32;100.00;98472.30;1661206;83;28066;-90
2022/07/28 08:19:29;;;;;;;4.03;1.60;;;;;;;20.40;100.00;98471.48;1644774;86;28140;-86
2022/07/28 08:21:55;;;;;;;5.22;1.37;;;;;;;20.46;100.00;98467.63;1666633;86;28080;-86
2022/07/28 08:24:22;;;;;;;4.37;1.37;;;;;;;20.55;100.00;98466.30;1635400;85;42166;-86
2022/07/28 08:26:49;;;;;;;3.08;1.37;;;;;;;20.64;100.00;98469.25;1657122;83;28032;-86
2022/07/28 08:29:16;;;;;;;3.02;1.42;;;;;;;20.68;99.74;98468.74;1657685;83;28187;-90
2022/07/28 08:31:42;;;;;;;3.52;1.50;;;;;;;20.74;99.00;98465.41;1667281;84;28072;-90
2022/07/28 08:34:08;;;;;;;1.95;1.10;;;;;;;20.80;98.11;98463.89;1666779;83;28181;-89
2022/07/28 08:36:34;;;;;;;2.33;1.30;;;;;;;20.87;97.38;98455.06;1666573;84;28123;-86
2022/07/28 08:39:01;;;;;;;2.55;1.22;;;;;;;20.94;96.69;98457.88;1666517;83;28100;-86
2022/07/28 08:41:40;;;;;;;2.70;1.00;;;;;;;20.96;95.87;98457.69;1632411;85;28161;-86
2022/07/28 08:44:09;;;;;;;2.50;1.30;;;;;;;21.06;95.44;98462.30;1665843;84;28094;-86
2022/07/28 08:46:37;;;;;;;5.30;1.52;;;;;;;21.06;94.53;98457.80;1666468;83;28120;-90
2022/07/28 08:49:08;;;;;;;3.45;1.20;;;;;;;21.13;94.04;98453.95;1632478;85;28117;-85
2022/07/28 08:51:36;;;;;;;4.78;2.05;;;;;;;21.22;93.75;98462.28;1638224;85;28091;-85
2022/07/28 08:54:04;;;;;;;2.55;1.32;;;;;;;21.29;93.17;98462.73;1666388;86;28167;-86
2022/07/28 08:56:32;;;;;;;3.47;1.57;;;;;;;21.36;92.57;98456.71;1625080;87;28056;-86
2022/07/28 08:58:58;;;;;;;2.58;1.32;;;;;;;21.41;92.06;98456.52;1670246;84;28192;-86
2022/07/28 09:01:25;;;;;;;4.72;1.60;;;;;;;21.43;91.63;98452.36;1666393;86;28073;-86
2022/07/28 09:03:51;;;;;;;3.58;1.65;;;;;;;21.45;91.14;98452.48;1636008;85;28190;-89
2022/07/28 09:06:20;;;;;;;3.05;2.27;;;;;;;21.45;90.54;98452.98;1662416;83;28115;-84
2022/07/28 09:08:46;;;;;;;2.95;1.40;;;;;;;21.47;90.25;98449.66;1667037;83;28085;-85
2022/07/28 09:11:13;;;;;;;2.47;1.37;;;;;;;21.50;90.10;98453.30;1670836;83;28087;-86
2022/07/28 09:13:39;;;;;;;3.92;1.55;;;;;;;21.55;89.87;98453.09;1663664;84;28103;-85
2022/07/28 09:16:07;;;;;;;4.97;1.65;;;;;;;21.63;90.12;98457.05;1662725;84;28108;-85
2022/07/28 09:18:36;;;;;;;2.10;1.52;;;;;;;21.75;90.24;98453.48;1663414;84;28028;-86
2022/07/28 09:21:02;;;;;;;3.80;1.65;;;;;;;21.80;89.94;98444.95;1667661;85;28079;-86
2022/07/28 09:23:43;;;;;;;2.27;1.60;;;;;;;21.87;89.88;98456.56;1671091;83;28102;-86
2022/07/28 09:26:10;;;;;;;3.17;1.50;;;;;;;21.88;89.32;98446.20;1669082;83;28111;-85
2022/07/28 09:28:48;;;;;;;3.20;1.27;;;;;;;21.95;89.11;98445.36;1671520;83;28448;-86
2022/07/28 09:31:15;;;;;;;3.52;1.57;;;;;;;22.05;89.29;98443.27;1665561;83;28108;-85
2022/07/28 09:34:05;;;;;;;2.62;1.60;;;;;;;22.10;88.86;98442.73;1664572;84;28115;-85
2022/07/28 09:36:40;;;;;;;4.10;1.75;;;;;;;22.13;88.53;98442.39;1663455;84;28091;-89
2022/07/28 09:39:10;;;;;;;4.70;2.10;;;;;;;22.14;87.90;98443.22;1664142;84;28166;-89
2022/07/28 09:41:56;;;;;;;3.10;1.85;;;;;;;22.19;87.66;98443.50;1672902;83;28133;-89
2022/07/28 09:44:30;;;;;;;1.95;1.67;;;;;;;22.21;87.24;98444.13;1673199;85;28111;-90
2022/07/28 09:46:59;;;;;;;6.03;1.50;;;;;;;22.18;86.43;98442.67;1675360;84;28115;-86
2022/07/28 09:49:49;;;;;;;2.70;1.70;;;;;;;22.26;86.32;98441.75;1666425;83;28115;-89
2022/07/28 09:52:34;;;;;;;2.90;1.42;;;;;;;22.34;86.01;98443.02;1668094;83;28025;-85
2022/07/28 09:55:09;;;;;;;4.17;1.65;;;;;;;22.39;85.57;98431.30;1674198;83;28115;-86
2022/07/28 09:57:38;;;;;;;3.72;1.60;;;;;;;22.41;85.06;98434.12;1664541;84;28116;-87
2022/07/28 10:00:08;;;;;;;2.98;1.55;;;;;;;22.47;84.72;98439.23;1668082;84;28059;-90
2022/07/28 10:02:36;;;;;;;5.05;1.55;;;;;;;22.54;84.61;98440.14;1671542;83;28082;-90
2022/07/28 10:05:05;;;;;;;5.60;1.52;;;;;;;22.57;84.10;98437.13;1666210;83;28135;-91
2022/07/28 10:07:33;;;;;;;7.12;1.92;;;;;;;22.58;83.57;98438.80;1662622;83;28058;-90
2022/07/28 10:10:07;;;;;;;2.17;1.70;;;;;;;22.56;82.83;98440.80;1673624;84;28202;-85
2022/07/28 10:12:35;;;;;;;3.98;2.08;;;;;;;22.53;82.11;98441.15;1680942;83;28107;-90
2022/07/28 10:18:00;;;;;;;3.67;2.12;;;;;;;22.52;81.03;98436.85;1682998;82;28186;-89
2022/07/28 10:20:27;;;;;;;3.08;1.67;;;;;;;22.62;80.87;98436.58;1682162;82;28232;-90
2022/07/28 10:23:05;;;;;;;2.72;1.37;;;;;;;22.67;80.60;98426.18;1666233;84;28158;-89
2022/07/28 10:25:33;;;;;;;4.40;1.92;;;;;;;22.74;80.34;98425.81;1664812;84;28153;-86
2022/07/28 10:28:01;;;;;;;3.98;1.75;;;;;;;22.72;79.50;98416.64;1666324;84;28114;-86
2022/07/28 10:30:38;;;;;;;4.40;1.82;;;;;;;22.79;79.41;98422.91;1666445;84;28069;-86
2022/07/28 10:33:12;;;;;;;3.20;1.60;;;;;;;22.94;79.55;98421.05;1664403;86;28101;-85
2022/07/28 10:35:40;;;;;;;2.17;1.45;;;;;;;23.03;79.35;98419.09;1658941;83;28090;-90
2022/07/28 10:38:20;;;;;;;5.47;1.92;;;;;;;23.09;78.90;98422.86;1668364;83;28093;-89
2022/07/28 10:40:49;;;;;;;1.47;1.35;;;;;;;23.15;78.72;98416.27;1653965;85;28083;-86
2022/07/28 10:43:15;;;;;;;2.35;1.57;;;;;;;23.25;78.59;98415.97;1684073;83;28123;-85
2022/07/28 10:45:43;;;;;;;3.08;2.00;;;;;;;23.21;77.63;98416.03;1683705;83;28188;-85
2022/07/28 10:48:11;;;;;;;2.30;1.70;;;;;;;23.15;76.90;98414.11;1676760;82;28098;-85
2022/07/28 10:50:43;;;;;;;5.25;1.82;;;;;;;23.12;76.47;98411.83;1654601;84;28208;-84
2022/07/28 10:53:21;;;;;;;3.05;1.85;;;;;;;23.18;76.49;98417.76;1642880;85;28009;-86
2022/07/28 10:55:57;;;;;;;2.50;1.80;;;;;;;23.18;76.24;98411.91;1653667;85;28164;-86
2022/07/28 10:58:39;;;;;;;5.55;1.67;;;;;;;23.28;76.29;98405.77;1682271;83;28117;-90
2022/07/28 11:01:05;;;;;;;3.70;1.90;;;;;;;23.40;76.55;98412.77;1671848;83;28101;-86
2022/07/28 11:03:45;;;;;;;2.85;1.50;;;;;;;23.52;76.72;98404.59;1670110;83;28388;-86
2022/07/28 11:06:33;;;;;;;3.77;1.70;;;;;;;23.55;76.26;98406.07;1668994;83;28098;-86
2022/07/28 11:09:18;;;;;;;4.17;1.75;;;;;;;23.55;75.63;98406.91;1666015;86;28203;-86
2022/07/28 11:11:52;;;;;;;2.33;1.60;;;;;;;23.61;75.32;98399.47;1672173;84;28126;-86
2022/07/28 11:14:33;;;;;;;2.30;1.62;;;;;;;23.67;74.59;98400.55;1681719;83;28090;-90
2022/07/28 11:17:04;;;;;;;2.85;1.52;;;;;;;23.70;74.03;98391.63;1678069;83;28119;-90
2022/07/28 11:19:50;;;;;;;2.25;1.92;;;;;;;23.84;74.03;98397.91;1677312;85;28173;-90
2022/07/28 11:22:23;;;;;;;2.90;1.85;;;;;;;23.87;73.44;98400.72;1681415;83;28083;-86
2022/07/28 11:25:00;;;;;;;1.90;1.80;;;;;;;23.85;72.94;98397.40;1682641;84;28068;-86
2022/07/28 11:27:54;;;;;;;3.70;1.90;;;;;;;23.80;72.30;98390.47;1675656;83;28164;-84
2022/07/28 11:30:31;;;;;;;4.30;1.90;;;;;;;23.84;72.01;98387.75;1673610;85;28037;-86
2022/07/28 11:32:58;;;;;;;4.33;1.65;;;;;;;23.95;72.10;98381.86;1677117;85;28067;-85
2022/07/28 11:35:40;;;;;;;2.33;1.62;;;;;;;24.07;71.85;98389.16;1677600;85;28115;-86
2022/07/28 11:38:09;;;;;;;;;;;;;;;24.13;71.45;98392.41;1675465;85;28067;-86
2022/07/28 11:40:38;;;;;;;2.70;1.60;;;;;;;24.06;70.38;98394.70;1651627;84;24764;-85
2022/07/28 11:43:29;;;;;;;2.42;1.50;;;;;;;24.04;69.99;98395.42;1682816;83;28181;-85
2022/07/28 11:46:01;;;;;;;3.95;1.60;;;;;;;24.00;69.43;98391.48;1680142;83;28064;-85
2022/07/28 11:48:36;;;;;;;3.83;2.10;;;;;;;24.15;69.61;98388.20;1674414;84;28071;-89